sensor_id;sensor_type;location;lat;lon;timestamp;pressure;altitude;pressure_sealevel;temperature;humidity
9091;BME280;4581;42.416;25.598;2023-06-04T00:02:15;98511.78;;;18.89;90.66
9091;BME280;4581;42.416;25.598;2023-06-04T00:04:42;98509.84;;;18.90;90.88
9091;BME280;4581;42.416;25.598;2023-06-04T00:07:09;98509.41;;;18.93;91.17
9091;BME280;4581;42.416;25.598;2023-06-04T00:09:35;98512.84;;;18.88;91.28
9091;BME280;4581;42.416;25.598;2023-06-04T00:12:02;98521.44;;;18.74;93.34
9091;BME280;4581;42.416;25.598;2023-06-04T00:14:29;98520.81;;;18.72;93.36
9091;BME280;4581;42.416;25.598;2023-06-04T00:16:55;98517.22;;;18.71;93.37
9091;BME280;4581;42.416;25.598;2023-06-04T00:19:22;98520.34;;;18.75;94.65
9091;BME280;4581;42.416;25.598;2023-06-04T00:21:49;98514.50;;;18.71;95.81
9091;BME280;4581;42.416;25.598;2023-06-04T00:24:16;98519.28;;;18.76;97.59
9091;BME280;4581;42.416;25.598;2023-06-04T00:26:44;98512.53;;;18.78;98.90
9091;BME280;4581;42.416;25.598;2023-06-04T00:29:10;98520.88;;;18.83;99.54
9091;BME280;4581;42.416;25.598;2023-06-04T00:31:37;98521.34;;;18.80;99.99
9091;BME280;4581;42.416;25.598;2023-06-04T00:34:04;98517.97;;;18.78;100.00
9091;BME280;4581;42.416;25.598;2023-06-04T00:36:31;98512.31;;;18.80;100.00
9091;BME280;4581;42.416;25.598;2023-06-04T00:38:58;98520.66;;;18.85;100.00
9091;BME280;4581;42.416;25.598;2023-06-04T00:41:24;98511.00;;;18.82;100.00
9091;BME280;4581;42.416;25.598;2023-06-04T00:43:51;98507.44;;;18.82;100.00
9091;BME280;4581;42.416;25.598;2023-06-04T00:46:26;98505.84;;;18.74;100.00
9091;BME280;4581;42.416;25.598;2023-06-04T00:48:55;98502.59;;;18.84;100.00
9091;BME280;4581;42.416;25.598;2023-06-04T00:51:22;98506.06;;;18.91;100.00
9091;BME280;4581;42.416;25.598;2023-06-04T00:53:50;98499.69;;;18.97;100.00
9091;BME280;4581;42.416;25.598;2023-06-04T00:56:17;98498.94;;;18.90;100.00
9091;BME280;4581;42.416;25.598;2023-06-04T00:58:45;98501.75;;;18.83;100.00
9091;BME280;4581;42.416;25.598;2023-06-04T01:04:14;98496.13;;;18.78;100.00
9091;BME280;4581;42.416;25.598;2023-06-04T01:06:50;98495.28;;;18.78;100.00
9091;BME280;4581;42.416;25.598;2023-06-04T01:09:18;98496.22;;;18.72;100.00
9091;BME280;4581;42.416;25.598;2023-06-04T01:11:44;98487.88;;;18.66;100.00
9091;BME280;4581;42.416;25.598;2023-06-04T01:14:11;98498.75;;;18.73;100.00
9091;BME280;4581;42.416;25.598;2023-06-04T01:16:43;98496.91;;;18.67;100.00
9091;BME280;4581;42.416;25.598;2023-06-04T01:19:52;98504.72;;;18.63;100.00
9091;BME280;4581;42.416;25.598;2023-06-04T01:25:12;98497.88;;;18.54;100.00
9091;BME280;4581;42.416;25.598;2023-06-04T01:27:39;98505.66;;;18.57;100.00
9091;BME280;4581;42.416;25.598;2023-06-04T01:30:08;98506.22;;;18.59;99.87
9091;BME280;4581;42.416;25.598;2023-06-04T01:32:35;98503.13;;;18.56;100.00
9091;BME280;4581;42.416;25.598;2023-06-04T01:35:02;98511.31;;;18.56;100.00
9091;BME280;4581;42.416;25.598;2023-06-04T01:37:29;98513.84;;;18.57;100.00
9091;BME280;4581;42.416;25.598;2023-06-04T01:39:56;98507.75;;;18.55;100.00
9091;BME280;4581;42.416;25.598;2023-06-04T01:42:22;98508.69;;;18.43;100.00
9091;BME280;4581;42.416;25.598;2023-06-04T01:44:49;98514.09;;;18.49;98.21
9091;BME280;4581;42.416;25.598;2023-06-04T01:47:16;98525.44;;;18.46;97.76
9091;BME280;4581;42.416;25.598;2023-06-04T01:49:42;98519.31;;;18.51;97.28
9091;BME280;4581;42.416;25.598;2023-06-04T01:52:09;98519.50;;;18.56;97.07
9091;BME280;4581;42.416;25.598;2023-06-04T01:54:37;98525.81;;;18.56;97.05
9091;BME280;4581;42.416;25.598;2023-06-04T01:57:05;98518.72;;;18.49;97.39
9091;BME280;4581;42.416;25.598;2023-06-04T01:59:32;98528.91;;;18.60;96.90
9091;BME280;4581;42.416;25.598;2023-06-04T02:01:59;98544.00;;;18.62;95.47
9091;BME280;4581;42.416;25.598;2023-06-04T02:04:28;98543.72;;;18.52;96.09
9091;BME280;4581;42.416;25.598;2023-06-04T02:06:55;98530.53;;;18.43;96.22
9091;BME280;4581;42.416;25.598;2023-06-04T02:09:23;98556.06;;;18.55;95.06
9091;BME280;4581;42.416;25.598;2023-06-04T02:11:49;98557.78;;;18.49;95.08
9091;BME280;4581;42.416;25.598;2023-06-04T02:14:16;98564.50;;;18.47;94.62
9091;BME280;4581;42.416;25.598;2023-06-04T02:16:42;98569.31;;;18.51;93.46
9091;BME280;4581;42.416;25.598;2023-06-04T02:19:09;98564.91;;;18.50;93.22
9091;BME280;4581;42.416;25.598;2023-06-04T02:21:39;98558.38;;;18.51;93.58
9091;BME280;4581;42.416;25.598;2023-06-04T02:24:05;98564.03;;;18.56;92.87
9091;BME280;4581;42.416;25.598;2023-06-04T02:26:32;98555.66;;;18.51;92.64
9091;BME280;4581;42.416;25.598;2023-06-04T02:28:59;98558.78;;;18.55;92.37
9091;BME280;4581;42.416;25.598;2023-06-04T02:31:26;98563.22;;;18.56;92.56
9091;BME280;4581;42.416;25.598;2023-06-04T02:33:53;98560.69;;;18.54;92.48
9091;BME280;4581;42.416;25.598;2023-06-04T02:36:19;98561.78;;;18.53;92.22
9091;BME280;4581;42.416;25.598;2023-06-04T02:38:46;98560.69;;;18.54;91.87
9091;BME280;4581;42.416;25.598;2023-06-04T02:41:13;98567.38;;;18.58;92.25
9091;BME280;4581;42.416;25.598;2023-06-04T02:43:39;98569.03;;;18.59;92.31
9091;BME280;4581;42.416;25.598;2023-06-04T02:46:06;98572.41;;;18.61;91.81
9091;BME280;4581;42.416;25.598;2023-06-04T02:48:33;98569.03;;;18.59;91.61
9091;BME280;4581;42.416;25.598;2023-06-04T02:50:59;98568.16;;;18.65;91.84
9091;BME280;4581;42.416;25.598;2023-06-04T02:53:27;98567.06;;;18.66;91.67
9091;BME280;4581;42.416;25.598;2023-06-04T02:55:53;98574.84;;;18.69;91.49
9091;BME280;4581;42.416;25.598;2023-06-04T02:58:20;98557.53;;;18.57;91.23
9091;BME280;4581;42.416;25.598;2023-06-04T03:00:48;98575.06;;;18.68;91.40
9091;BME280;4581;42.416;25.598;2023-06-04T03:03:14;98579.69;;;18.67;91.26
9091;BME280;4581;42.416;25.598;2023-06-04T03:05:41;98575.91;;;18.68;91.53
9091;BME280;4581;42.416;25.598;2023-06-04T03:08:09;98590.13;;;18.70;91.90
9091;BME280;4581;42.416;25.598;2023-06-04T03:10:36;98584.09;;;18.68;91.39
9091;BME280;4581;42.416;25.598;2023-06-04T03:13:03;98593.13;;;18.69;91.51
9091;BME280;4581;42.416;25.598;2023-06-04T03:15:30;98589.94;;;18.72;92.11
9091;BME280;4581;42.416;25.598;2023-06-04T03:17:56;98596.22;;;18.73;91.86
9091;BME280;4581;42.416;25.598;2023-06-04T03:20:23;98592.44;;;18.74;91.36
9091;BME280;4581;42.416;25.598;2023-06-04T03:22:53;98607.81;;;18.68;91.49
9091;BME280;4581;42.416;25.598;2023-06-04T03:25:19;98609.34;;;18.64;92.37
9091;BME280;4581;42.416;25.598;2023-06-04T03:27:46;98605.00;;;18.56;94.81
9091;BME280;4581;42.416;25.598;2023-06-04T03:30:13;98609.72;;;18.43;95.29
9091;BME280;4581;42.416;25.598;2023-06-04T03:32:39;98609.38;;;18.33;97.48
9091;BME280;4581;42.416;25.598;2023-06-04T03:35:07;98607.50;;;18.33;97.91
9091;BME280;4581;42.416;25.598;2023-06-04T03:37:33;98609.44;;;18.26;98.17
9091;BME280;4581;42.416;25.598;2023-06-04T03:40:00;98611.88;;;18.34;99.35
9091;BME280;4581;42.416;25.598;2023-06-04T03:42:28;98609.38;;;18.33;100.00
9091;BME280;4581;42.416;25.598;2023-06-04T03:44:55;98606.28;;;18.29;100.00
9091;BME280;4581;42.416;25.598;2023-06-04T03:47:24;98605.06;;;18.25;100.00
9091;BME280;4581;42.416;25.598;2023-06-04T03:49:51;98611.09;;;18.27;100.00
9091;BME280;4581;42.416;25.598;2023-06-04T03:52:18;98615.50;;;18.28;100.00
9091;BME280;4581;42.416;25.598;2023-06-04T03:54:44;98620.53;;;18.31;100.00
9091;BME280;4581;42.416;25.598;2023-06-04T03:57:11;98616.28;;;18.35;99.39
9091;BME280;4581;42.416;25.598;2023-06-04T03:59:38;98630.13;;;18.40;98.98
9091;BME280;4581;42.416;25.598;2023-06-04T04:02:04;98624.41;;;18.42;99.30
9091;BME280;4581;42.416;25.598;2023-06-04T04:04:32;98626.47;;;18.46;99.25
9091;BME280;4581;42.416;25.598;2023-06-04T04:07:01;98623.53;;;18.48;99.45
9091;BME280;4581;42.416;25.598;2023-06-04T04:09:28;98630.84;;;18.54;99.34
9091;BME280;4581;42.416;25.598;2023-06-04T04:11:55;98636.72;;;18.57;98.96
9091;BME280;4581;42.416;25.598;2023-06-04T04:14:21;98631.25;;;18.57;97.65
9091;BME280;4581;42.416;25.598;2023-06-04T04:16:48;98631.94;;;18.53;97.54
9091;BME280;4581;42.416;25.598;2023-06-04T04:19:15;98636.94;;;18.56;97.59
9091;BME280;4581;42.416;25.598;2023-06-04T04:21:41;98634.19;;;18.56;96.20
9091;BME280;4581;42.416;25.598;2023-06-04T04:24:08;98635.25;;;18.55;96.74
9091;BME280;4581;42.416;25.598;2023-06-04T04:26:35;98630.81;;;18.60;98.24
9091;BME280;4581;42.416;25.598;2023-06-04T04:29:02;98633.72;;;18.65;97.82
9091;BME280;4581;42.416;25.598;2023-06-04T04:31:30;98635.81;;;18.63;97.93
9091;BME280;4581;42.416;25.598;2023-06-04T04:33:57;98639.16;;;18.65;98.42
9091;BME280;4581;42.416;25.598;2023-06-04T04:36:24;98640.78;;;18.73;98.46
9091;BME280;4581;42.416;25.598;2023-06-04T04:38:50;98634.09;;;18.69;98.37
9091;BME280;4581;42.416;25.598;2023-06-04T04:41:21;98634.31;;;18.67;98.03
9091;BME280;4581;42.416;25.598;2023-06-04T04:43:49;98637.19;;;18.73;98.58
9091;BME280;4581;42.416;25.598;2023-06-04T04:46:16;98650.72;;;18.86;98.62
9091;BME280;4581;42.416;25.598;2023-06-04T04:48:43;98649.59;;;18.93;97.80
9091;BME280;4581;42.416;25.598;2023-06-04T04:51:09;98658.56;;;19.00;97.55
9091;BME280;4581;42.416;25.598;2023-06-04T04:53:36;98653.66;;;19.09;96.29
9091;BME280;4581;42.416;25.598;2023-06-04T04:56:03;98651.03;;;19.14;94.96
9091;BME280;4581;42.416;25.598;2023-06-04T04:58:33;98663.34;;;19.23;95.05
9091;BME280;4581;42.416;25.598;2023-06-04T05:00:59;98659.56;;;19.24;95.41
9091;BME280;4581;42.416;25.598;2023-06-04T05:03:26;98659.47;;;19.31;95.74
9091;BME280;4581;42.416;25.598;2023-06-04T05:05:53;98667.25;;;19.34;95.70
9091;BME280;4581;42.416;25.598;2023-06-04T05:08:19;98671.97;;;19.45;95.99
9091;BME280;4581;42.416;25.598;2023-06-04T05:10:46;98674.53;;;19.58;94.88
9091;BME280;4581;42.416;25.598;2023-06-04T05:13:13;98670.72;;;19.59;94.72
9091;BME280;4581;42.416;25.598;2023-06-04T05:15:39;98679.25;;;19.69;95.59
9091;BME280;4581;42.416;25.598;2023-06-04T05:18:06;98685.69;;;19.75;96.28
9091;BME280;4581;42.416;25.598;2023-06-04T05:20:34;98686.16;;;19.72;97.26
9091;BME280;4581;42.416;25.598;2023-06-04T05:23:04;98691.84;;;19.70;97.00
9091;BME280;4581;42.416;25.598;2023-06-04T05:25:31;98694.88;;;19.62;96.98
9091;BME280;4581;42.416;25.598;2023-06-04T05:27:57;98691.25;;;19.50;96.16
9091;BME280;4581;42.416;25.598;2023-06-04T05:30:24;98702.44;;;19.48;95.19
9091;BME280;4581;42.416;25.598;2023-06-04T05:32:51;98694.44;;;19.47;95.40
9091;BME280;4581;42.416;25.598;2023-06-04T05:35:20;98708.81;;;19.60;95.30
9091;BME280;4581;42.416;25.598;2023-06-04T05:37:47;98712.00;;;19.57;95.31
9091;BME280;4581;42.416;25.598;2023-06-04T05:40:20;98717.59;;;19.62;93.54
9091;BME280;4581;42.416;25.598;2023-06-04T05:42:48;98719.28;;;19.63;94.44
9091;BME280;4581;42.416;25.598;2023-06-04T05:45:15;98714.28;;;19.60;94.45
9091;BME280;4581;42.416;25.598;2023-06-04T05:47:41;98724.06;;;19.50;93.82
9091;BME280;4581;42.416;25.598;2023-06-04T05:50:09;98720.78;;;19.41;93.23
9091;BME280;4581;42.416;25.598;2023-06-04T05:52:36;98726.03;;;19.43;93.31
9091;BME280;4581;42.416;25.598;2023-06-04T05:55:04;98728.63;;;19.38;91.59
9091;BME280;4581;42.416;25.598;2023-06-04T05:57:34;98735.97;;;19.37;92.51
9091;BME280;4581;42.416;25.598;2023-06-04T06:00:02;98733.56;;;19.47;91.61
9091;BME280;4581;42.416;25.598;2023-06-04T06:02:28;98748.34;;;19.40;93.91
9091;BME280;4581;42.416;25.598;2023-06-04T06:04:55;98741.88;;;19.34;93.19
9091;BME280;4581;42.416;25.598;2023-06-04T06:07:22;98746.13;;;19.12;93.91
9091;BME280;4581;42.416;25.598;2023-06-04T06:09:49;98749.41;;;19.21;91.65
9091;BME280;4581;42.416;25.598;2023-06-04T06:12:16;98749.19;;;18.97;94.53
9091;BME280;4581;42.416;25.598;2023-06-04T06:14:42;98753.19;;;18.95;93.23
9091;BME280;4581;42.416;25.598;2023-06-04T06:17:09;98758.22;;;18.98;93.44
9091;BME280;4581;42.416;25.598;2023-06-04T06:19:36;98759.69;;;19.00;93.60
9091;BME280;4581;42.416;25.598;2023-06-04T06:22:03;98749.41;;;18.96;95.81
9091;BME280;4581;42.416;25.598;2023-06-04T06:24:31;98761.56;;;19.00;97.18
9091;BME280;4581;42.416;25.598;2023-06-04T06:26:57;98766.88;;;18.95;97.81
9091;BME280;4581;42.416;25.598;2023-06-04T06:29:24;98770.91;;;18.86;98.55
9091;BME280;4581;42.416;25.598;2023-06-04T06:31:51;98774.69;;;18.91;97.94
9091;BME280;4581;42.416;25.598;2023-06-04T06:34:18;98775.31;;;18.93;98.29
9091;BME280;4581;42.416;25.598;2023-06-04T06:36:44;98773.38;;;18.94;98.57
9091;BME280;4581;42.416;25.598;2023-06-04T06:39:11;98770.13;;;18.85;99.60
9091;BME280;4581;42.416;25.598;2023-06-04T06:41:38;98776.38;;;18.86;100.00
9091;BME280;4581;42.416;25.598;2023-06-04T06:44:05;98778.25;;;18.92;97.01
9091;BME280;4581;42.416;25.598;2023-06-04T06:46:32;98792.28;;;18.95;97.54
9091;BME280;4581;42.416;25.598;2023-06-04T06:48:59;98804.84;;;19.03;97.08
9091;BME280;4581;42.416;25.598;2023-06-04T06:51:26;98796.88;;;19.01;97.65
9091;BME280;4581;42.416;25.598;2023-06-04T06:53:53;98800.88;;;18.99;96.38
9091;BME280;4581;42.416;25.598;2023-06-04T06:56:19;98794.25;;;18.88;96.17
9091;BME280;4581;42.416;25.598;2023-06-04T06:58:46;98798.88;;;18.88;97.42
9091;BME280;4581;42.416;25.598;2023-06-04T07:01:13;98807.91;;;18.88;98.48
9091;BME280;4581;42.416;25.598;2023-06-04T07:03:40;98802.84;;;18.92;98.43
9091;BME280;4581;42.416;25.598;2023-06-04T07:06:06;98815.66;;;18.91;98.94
9091;BME280;4581;42.416;25.598;2023-06-04T07:08:33;98815.66;;;18.91;99.58
9091;BME280;4581;42.416;25.598;2023-06-04T07:11:02;98823.78;;;18.98;100.00
9091;BME280;4581;42.416;25.598;2023-06-04T07:13:29;98823.31;;;19.07;100.00
9091;BME280;4581;42.416;25.598;2023-06-04T07:15:58;98824.38;;;19.06;100.00
9091;BME280;4581;42.416;25.598;2023-06-04T07:18:25;98826.50;;;19.04;100.00
9091;BME280;4581;42.416;25.598;2023-06-04T07:20:52;98832.13;;;19.09;100.00
9091;BME280;4581;42.416;25.598;2023-06-04T07:23:22;98837.59;;;19.09;100.00
9091;BME280;4581;42.416;25.598;2023-06-04T07:25:49;98838.88;;;19.07;100.00
9091;BME280;4581;42.416;25.598;2023-06-04T07:28:16;98838.88;;;19.07;100.00
9091;BME280;4581;42.416;25.598;2023-06-04T07:30:45;98844.78;;;19.04;100.00
9091;BME280;4581;42.416;25.598;2023-06-04T07:33:12;98834.13;;;18.96;100.00
9091;BME280;4581;42.416;25.598;2023-06-04T07:35:39;98846.09;;;18.95;100.00
9091;BME280;4581;42.416;25.598;2023-06-04T07:38:06;98849.75;;;18.89;100.00
9091;BME280;4581;42.416;25.598;2023-06-04T07:40:32;98850.16;;;18.86;100.00
9091;BME280;4581;42.416;25.598;2023-06-04T07:42:59;98854.13;;;18.90;100.00
9091;BME280;4581;42.416;25.598;2023-06-04T07:45:25;98856.19;;;18.94;100.00
9091;BME280;4581;42.416;25.598;2023-06-04T07:47:56;98851.56;;;18.95;100.00
9091;BME280;4581;42.416;25.598;2023-06-04T07:50:23;98857.50;;;18.92;100.00
9091;BME280;4581;42.416;25.598;2023-06-04T07:52:50;98853.72;;;18.86;100.00
9091;BME280;4581;42.416;25.598;2023-06-04T07:55:17;98858.53;;;18.91;100.00
9091;BME280;4581;42.416;25.598;2023-06-04T07:57:44;98857.50;;;18.92;100.00
9091;BME280;4581;42.416;25.598;2023-06-04T08:00:12;98861.50;;;18.89;100.00
9091;BME280;4581;42.416;25.598;2023-06-04T08:02:39;98875.19;;;18.89;100.00
9091;BME280;4581;42.416;25.598;2023-06-04T08:05:06;98877.00;;;18.64;100.00
9091;BME280;4581;42.416;25.598;2023-06-04T08:07:33;98874.47;;;18.62;100.00
9091;BME280;4581;42.416;25.598;2023-06-04T08:09:59;98879.78;;;18.57;100.00
9091;BME280;4581;42.416;25.598;2023-06-04T08:12:26;98875.38;;;18.56;100.00
9091;BME280;4581;42.416;25.598;2023-06-04T08:14:53;98881.00;;;18.61;100.00
9091;BME280;4581;42.416;25.598;2023-06-04T08:17:23;98882.50;;;18.57;100.00
9091;BME280;4581;42.416;25.598;2023-06-04T08:19:50;98889.22;;;18.48;100.00
9091;BME280;4581;42.416;25.598;2023-06-04T08:22:17;98891.16;;;18.41;100.00
9091;BME280;4581;42.416;25.598;2023-06-04T08:24:43;98891.38;;;18.40;100.00
9091;BME280;4581;42.416;25.598;2023-06-04T08:27:10;98888.78;;;18.51;100.00
9091;BME280;4581;42.416;25.598;2023-06-04T08:29:37;98885.41;;;18.62;100.00
9091;BME280;4581;42.416;25.598;2023-06-04T08:32:05;98882.25;;;18.65;100.00
9091;BME280;4581;42.416;25.598;2023-06-04T08:34:34;98895.03;;;18.72;100.00
9091;BME280;4581;42.416;25.598;2023-06-04T08:37:01;98900.44;;;18.78;100.00
9091;BME280;4581;42.416;25.598;2023-06-04T08:39:27;98889.31;;;18.80;100.00
9091;BME280;4581;42.416;25.598;2023-06-04T08:41:57;98894.13;;;18.84;100.00
9091;BME280;4581;42.416;25.598;2023-06-04T08:44:27;98892.56;;;18.95;100.00
9091;BME280;4581;42.416;25.598;2023-06-04T08:47:01;98887.72;;;18.97;100.00
9091;BME280;4581;42.416;25.598;2023-06-04T08:49:34;98891.44;;;19.09;100.00
9091;BME280;4581;42.416;25.598;2023-06-04T08:52:03;98896.28;;;19.07;100.00
9091;BME280;4581;42.416;25.598;2023-06-04T08:54:30;98896.44;;;19.12;100.00
9091;BME280;4581;42.416;25.598;2023-06-04T08:56:57;98901.97;;;19.05;100.00
9091;BME280;4581;42.416;25.598;2023-06-04T08:59:24;98901.47;;;19.15;100.00
9091;BME280;4581;42.416;25.598;2023-06-04T09:01:53;98894.03;;;19.22;100.00
9091;BME280;4581;42.416;25.598;2023-06-04T09:04:21;98897.81;;;19.28;100.00
9091;BME280;4581;42.416;25.598;2023-06-04T09:06:48;98903.00;;;19.36;100.00
9091;BME280;4581;42.416;25.598;2023-06-04T09:09:16;98905.69;;;19.42;100.00
9091;BME280;4581;42.416;25.598;2023-06-04T09:11:55;98903.81;;;19.43;100.00
9091;BME280;4581;42.416;25.598;2023-06-04T09:14:23;98903.81;;;19.43;100.00
9091;BME280;4581;42.416;25.598;2023-06-04T09:16:51;98902.31;;;19.47;100.00
9091;BME280;4581;42.416;25.598;2023-06-04T09:19:19;98899.28;;;19.55;100.00
9091;BME280;4581;42.416;25.598;2023-06-04T09:21:53;98907.84;;;19.65;100.00
9091;BME280;4581;42.416;25.598;2023-06-04T09:24:22;98913.16;;;19.78;98.61
9091;BME280;4581;42.416;25.598;2023-06-04T09:26:49;98914.22;;;20.02;99.10
9091;BME280;4581;42.416;25.598;2023-06-04T09:29:17;98912.53;;;20.19;99.23
9091;BME280;4581;42.416;25.598;2023-06-04T09:31:45;98909.63;;;20.14;100.00
9091;BME280;4581;42.416;25.598;2023-06-04T09:34:13;98910.53;;;20.33;98.95
9091;BME280;4581;42.416;25.598;2023-06-04T09:36:41;98910.44;;;20.39;93.99
9091;BME280;4581;42.416;25.598;2023-06-04T09:39:16;98916.31;;;20.18;95.06
9091;BME280;4581;42.416;25.598;2023-06-04T09:41:43;98908.09;;;19.82;98.07
9091;BME280;4581;42.416;25.598;2023-06-04T09:44:09;98910.53;;;19.90;99.99
9091;BME280;4581;42.416;25.598;2023-06-04T09:46:39;98904.03;;;20.09;100.00
9091;BME280;4581;42.416;25.598;2023-06-04T09:49:06;98898.69;;;19.96;96.37
9091;BME280;4581;42.416;25.598;2023-06-04T09:51:33;98908.56;;;20.15;95.63
9091;BME280;4581;42.416;25.598;2023-06-04T09:54:01;98906.75;;;20.27;95.76
9091;BME280;4581;42.416;25.598;2023-06-04T09:56:28;98899.31;;;20.52;96.02
9091;BME280;4581;42.416;25.598;2023-06-04T09:58:58;98900.59;;;20.68;93.21
9091;BME280;4581;42.416;25.598;2023-06-04T10:01:28;98907.97;;;20.97;91.49
9091;BME280;4581;42.416;25.598;2023-06-04T10:03:58;98909.03;;;20.96;91.93
9091;BME280;4581;42.416;25.598;2023-06-04T10:06:33;98906.03;;;21.16;90.81
9091;BME280;4581;42.416;25.598;2023-06-04T10:09:05;98900.84;;;21.26;87.95
9091;BME280;4581;42.416;25.598;2023-06-04T10:11:35;98906.34;;;21.50;88.14
9091;BME280;4581;42.416;25.598;2023-06-04T10:14:24;98912.34;;;21.70;87.17
9091;BME280;4581;42.416;25.598;2023-06-04T10:16:52;98909.69;;;21.75;81.57
9091;BME280;4581;42.416;25.598;2023-06-04T10:19:20;98915.94;;;21.82;81.16
9091;BME280;4581;42.416;25.598;2023-06-04T10:21:47;98904.97;;;21.82;82.47
9091;BME280;4581;42.416;25.598;2023-06-04T10:24:14;98903.66;;;22.08;84.27
9091;BME280;4581;42.416;25.598;2023-06-04T10:26:42;98916.28;;;22.20;82.74
9091;BME280;4581;42.416;25.598;2023-06-04T10:29:09;98913.63;;;22.49;82.37
9091;BME280;4581;42.416;25.598;2023-06-04T10:31:37;98911.88;;;22.82;79.45
9091;BME280;4581;42.416;25.598;2023-06-04T10:34:04;98910.25;;;23.26;75.93
9091;BME280;4581;42.416;25.598;2023-06-04T10:36:31;98917.38;;;23.72;73.80
9091;BME280;4581;42.416;25.598;2023-06-04T10:39:08;98906.59;;;23.88;71.16
9091;BME280;4581;42.416;25.598;2023-06-04T10:41:35;98920.22;;;23.77;69.70
9091;BME280;4581;42.416;25.598;2023-06-04T10:44:02;98919.72;;;23.81;71.17
9091;BME280;4581;42.416;25.598;2023-06-04T10:46:41;98917.97;;;23.91;72.28
9091;BME280;4581;42.416;25.598;2023-06-04T10:49:09;98916.13;;;23.80;65.56
9091;BME280;4581;42.416;25.598;2023-06-04T10:51:37;98903.22;;;23.36;73.07
9091;BME280;4581;42.416;25.598;2023-06-04T10:54:04;98901.19;;;23.59;69.94
9091;BME280;4581;42.416;25.598;2023-06-04T10:56:33;98902.00;;;23.76;69.92
9091;BME280;4581;42.416;25.598;2023-06-04T10:59:13;98902.66;;;24.00;68.25
9091;BME280;4581;42.416;25.598;2023-06-04T11:01:40;98905.50;;;24.05;69.26
9091;BME280;4581;42.416;25.598;2023-06-04T11:04:21;98911.31;;;24.09;67.41
9091;BME280;4581;42.416;25.598;2023-06-04T11:07:09;98902.13;;;24.03;72.63
9091;BME280;4581;42.416;25.598;2023-06-04T11:09:37;98901.34;;;23.86;68.05
9091;BME280;4581;42.416;25.598;2023-06-04T11:12:05;98898.19;;;23.77;67.52
9091;BME280;4581;42.416;25.598;2023-06-04T11:14:32;98895.19;;;23.79;70.08
9091;BME280;4581;42.416;25.598;2023-06-04T11:17:11;98894.59;;;23.77;70.28
9091;BME280;4581;42.416;25.598;2023-06-04T11:19:38;98892.50;;;23.84;71.30
9091;BME280;4581;42.416;25.598;2023-06-04T11:22:05;98879.84;;;23.66;67.74
9091;BME280;4581;42.416;25.598;2023-06-04T11:24:32;98880.69;;;23.67;69.05
9091;BME280;4581;42.416;25.598;2023-06-04T11:26:59;98891.09;;;23.65;70.12
9091;BME280;4581;42.416;25.598;2023-06-04T11:29:40;98884.09;;;23.74;73.58
9091;BME280;4581;42.416;25.598;2023-06-04T11:32:07;98889.75;;;23.84;74.21
9091;BME280;4581;42.416;25.598;2023-06-04T11:34:33;98888.22;;;23.93;71.56
9091;BME280;4581;42.416;25.598;2023-06-04T11:37:09;98871.91;;;24.08;69.86
9091;BME280;4581;42.416;25.598;2023-06-04T11:39:37;98882.09;;;24.08;70.52
9091;BME280;4581;42.416;25.598;2023-06-04T11:42:06;98873.97;;;24.35;68.26
9091;BME280;4581;42.416;25.598;2023-06-04T11:44:34;98880.50;;;24.50;67.33
9091;BME280;4581;42.416;25.598;2023-06-04T11:47:01;98878.16;;;25.07;65.54
9091;BME280;4581;42.416;25.598;2023-06-04T11:49:31;98882.75;;;25.29;63.88
9091;BME280;4581;42.416;25.598;2023-06-04T11:51:58;98878.66;;;25.04;65.34
9091;BME280;4581;42.416;25.598;2023-06-04T11:54:24;98878.25;;;25.49;63.49
9091;BME280;4581;42.416;25.598;2023-06-04T11:56:51;98857.44;;;25.64;58.73
9091;BME280;4581;42.416;25.598;2023-06-04T11:59:19;98882.25;;;25.95;58.74
9091;BME280;4581;42.416;25.598;2023-06-04T12:01:47;98881.56;;;26.20;60.51
9091;BME280;4581;42.416;25.598;2023-06-04T12:04:17;98888.13;;;26.61;57.46
9091;BME280;4581;42.416;25.598;2023-06-04T12:07:10;98889.81;;;26.62;57.81
9091;BME280;4581;42.416;25.598;2023-06-04T12:09:38;98886.59;;;26.85;58.11
9091;BME280;4581;42.416;25.598;2023-06-04T12:12:07;98877.09;;;26.66;58.02
9091;BME280;4581;42.416;25.598;2023-06-04T12:14:34;98888.47;;;26.75;55.66
9091;BME280;4581;42.416;25.598;2023-06-04T12:17:05;98881.94;;;27.06;52.53
9091;BME280;4581;42.416;25.598;2023-06-04T12:19:33;98888.31;;;27.07;52.79
9091;BME280;4581;42.416;25.598;2023-06-04T12:22:05;98893.91;;;27.32;52.85
9091;BME280;4581;42.416;25.598;2023-06-04T12:24:34;98886.13;;;27.29;53.45
9091;BME280;4581;42.416;25.598;2023-06-04T12:27:07;98891.69;;;27.39;51.07
9091;BME280;4581;42.416;25.598;2023-06-04T12:29:35;98888.59;;;27.20;52.15
9091;BME280;4581;42.416;25.598;2023-06-04T12:32:09;98888.09;;;27.33;52.67
9091;BME280;4581;42.416;25.598;2023-06-04T12:34:41;98887.78;;;27.15;53.08
9091;BME280;4581;42.416;25.598;2023-06-04T12:37:08;98886.91;;;26.99;50.96
9091;BME280;4581;42.416;25.598;2023-06-04T12:39:35;98892.53;;;26.52;50.19
9091;BME280;4581;42.416;25.598;2023-06-04T12:42:05;98883.41;;;26.51;53.33
9091;BME280;4581;42.416;25.598;2023-06-04T12:44:33;98877.84;;;26.46;53.05
9091;BME280;4581;42.416;25.598;2023-06-04T12:47:01;98880.06;;;26.49;57.00
9091;BME280;4581;42.416;25.598;2023-06-04T12:49:28;98878.22;;;26.18;53.38
9091;BME280;4581;42.416;25.598;2023-06-04T12:51:55;98886.13;;;25.99;54.47
9091;BME280;4581;42.416;25.598;2023-06-04T12:54:22;98876.88;;;25.52;56.73
9091;BME280;4581;42.416;25.598;2023-06-04T12:56:49;98866.50;;;25.32;56.98
9091;BME280;4581;42.416;25.598;2023-06-04T12:59:16;98871.06;;;25.48;58.15
9091;BME280;4581;42.416;25.598;2023-06-04T13:01:43;98872.41;;;25.73;59.52
9091;BME280;4581;42.416;25.598;2023-06-04T13:04:10;98875.19;;;25.78;58.68
9091;BME280;4581;42.416;25.598;2023-06-04T13:06:37;98865.13;;;25.61;57.62
9091;BME280;4581;42.416;25.598;2023-06-04T13:09:05;98867.00;;;25.56;58.44
9091;BME280;4581;42.416;25.598;2023-06-04T13:11:42;98868.72;;;25.30;57.68
9091;BME280;4581;42.416;25.598;2023-06-04T13:14:10;98866.50;;;25.59;56.06
9091;BME280;4581;42.416;25.598;2023-06-04T13:16:40;98860.44;;;25.62;59.14
9091;BME280;4581;42.416;25.598;2023-06-04T13:19:07;98866.22;;;25.60;56.52